Brownsville, Kentucky
Current Conditions -  °F | °C
As of 8:53 PM on Saturday 22 Nov 2014 (Local Time) from KBWG Reporting Station
Broken Clouds Broken Clouds  
Wind Chill: 55°   Ceiling: 9000
Heat Index: 55°   Visibility: 10mi
Dew Point: 37°   Wind: 8mph
Humidity: 51%   Direction: 180°S
Pressure: 30.09"   Gusts: NA
Location:  37.19°N, 86.27°W
Report Text: KBWG 230253Z AUTO 18007KT 10SM BKN090 13/03 A3009 RMK AO2 SLP188 T01280028 57008
Loading
Personal Weather Stations






























Interactive Weather Map New forecast layout! Learn more

10-Day Weather Forecast

Advertisements
Track Severe Weather on mobile